Time;durP1;ratioP1;P1;durP2;ratioP2;P2;SDS_P1;SDS_P2;PMS_P1;PMS_P2;Temp;Humidity;BMP_temperature;BMP_pressure;BME280_temperature;BME280_humidity;BME280_pressure;Samples;Min_cycle;Max_cycle;Signal;HPM_P1;HPM_P2
2022/02/12 00:00:20;;;;;;;11.07;6.82;;;;;;;-1.31;100.00;97341.75;5072065;28;24441;-75
2022/02/12 00:02:48;;;;;;;10.07;6.17;;;;;;;-1.30;100.00;97337.50;5071676;28;24429;-75
2022/02/12 00:05:17;;;;;;;7.00;5.28;;;;;;;-1.24;100.00;97324.88;5071824;28;24446;-75
2022/02/12 00:07:45;;;;;;;13.70;5.65;;;;;;;-1.02;100.00;97333.53;5071564;28;24423;-74
2022/02/12 00:10:12;;;;;;;10.90;5.93;;;;;;;-0.96;100.00;97331.03;5071835;28;24430;-74
2022/02/12 00:12:39;;;;;;;9.02;6.40;;;;;;;-1.13;100.00;97332.59;5071610;28;24431;-75
2022/02/12 00:15:06;;;;;;;10.25;6.57;;;;;;;-1.31;100.00;97328.19;5071562;28;24418;-74
2022/02/12 00:17:33;;;;;;;11.85;6.68;;;;;;;-1.62;100.00;97324.53;5071253;28;24464;-74
2022/02/12 00:19:59;;;;;;;9.95;6.30;;;;;;;-1.58;100.00;97324.56;5071905;28;24427;-73
2022/02/12 00:22:26;;;;;;;8.82;5.93;;;;;;;-1.51;100.00;97328.03;5071513;28;24827;-73
2022/02/12 00:24:53;;;;;;;9.23;6.37;;;;;;;-1.49;100.00;97319.56;5064750;28;24862;-74
2022/02/12 00:27:20;;;;;;;10.63;6.82;;;;;;;-1.54;100.00;97320.38;5062851;28;24422;-74
2022/02/12 00:29:46;;;;;;;13.50;6.90;;;;;;;-1.63;100.00;97310.09;5063045;28;24438;-74
2022/02/12 00:32:13;;;;;;;10.82;6.47;;;;;;;-1.62;100.00;97315.22;5059796;28;24442;-74
2022/02/12 00:34:39;;;;;;;8.13;5.82;;;;;;;-1.58;100.00;97314.41;5068828;28;24998;-74
2022/02/12 00:37:06;;;;;;;9.80;6.03;;;;;;;-1.52;100.00;97311.06;5062608;28;24994;-74
2022/02/12 00:39:32;;;;;;;12.73;5.70;;;;;;;-1.58;100.00;97316.09;5071416;28;24449;-74
2022/02/12 00:42:00;;;;;;;9.18;5.45;;;;;;;-1.55;100.00;97308.50;5069659;28;24496;-74
2022/02/12 00:44:27;;;;;;;8.65;5.82;;;;;;;-1.45;100.00;97307.72;5064562;28;25002;-74
2022/02/12 00:46:55;;;;;;;9.20;5.82;;;;;;;-1.51;100.00;97312.78;5070832;28;24455;-74
2022/02/12 00:49:23;;;;;;;11.07;6.05;;;;;;;-1.74;100.00;97307.47;5058989;28;24469;-74
2022/02/12 00:51:49;;;;;;;7.82;5.70;;;;;;;-1.78;100.00;97310.81;5070932;28;24426;-74
2022/02/12 00:54:16;;;;;;;11.38;5.53;;;;;;;-1.83;100.00;97312.47;5070501;28;24434;-74
2022/02/12 00:56:42;;;;;;;8.73;6.60;;;;;;;-2.22;100.00;97306.97;5070417;28;24453;-74
2022/02/12 00:59:10;;;;;;;11.25;6.57;;;;;;;-2.22;100.00;97303.56;5071106;28;24780;-74
2022/02/12 01:01:37;;;;;;;14.73;6.90;;;;;;;-2.17;100.00;97312.09;5070956;28;24476;-73
2022/02/12 01:04:04;;;;;;;12.52;6.28;;;;;;;-2.16;100.00;97316.31;5070816;28;24418;-74
2022/02/12 01:06:31;;;;;;;10.07;6.35;;;;;;;-2.26;100.00;97315.38;5070693;28;24429;-73
2022/02/12 01:08:58;;;;;;;14.75;6.20;;;;;;;-2.35;100.00;97311.88;5070635;28;24489;-73
2022/02/12 01:11:25;;;;;;;16.73;5.82;;;;;;;-2.38;100.00;97312.66;5070497;28;24415;-73
2022/02/12 01:13:51;;;;;;;9.45;5.57;;;;;;;-2.30;100.00;97312.75;5070392;28;24422;-74
2022/02/12 01:16:19;;;;;;;11.25;6.13;;;;;;;-2.17;100.00;97309.53;5070603;28;24450;-74
2022/02/12 01:18:46;;;;;;;9.73;5.72;;;;;;;-2.09;100.00;97307.09;5070486;28;24426;-73
2022/02/12 01:21:12;;;;;;;9.85;5.68;;;;;;;-1.99;100.00;97298.75;5070589;28;24464;-73
2022/02/12 01:23:39;;;;;;;11.63;6.65;;;;;;;-1.89;100.00;97297.16;5070450;28;24422;-74
2022/02/12 01:26:05;;;;;;;14.00;6.97;;;;;;;-1.83;100.00;97292.97;5070440;28;24487;-74
2022/02/12 01:28:32;;;;;;;9.87;6.03;;;;;;;-1.66;100.00;97295.72;5050577;28;24501;-74
2022/02/12 01:30:58;;;;;;;9.05;5.15;;;;;;;-1.79;100.00;97292.19;5050577;28;24418;-75
2022/02/12 01:33:26;;;;;;;6.25;4.93;;;;;;;-2.03;100.00;97287.72;5050222;28;24431;-75
2022/02/12 01:35:52;;;;;;;10.90;5.78;;;;;;;-2.01;100.00;97288.56;5050356;28;24497;-75
2022/02/12 01:38:19;;;;;;;7.50;4.70;;;;;;;-1.89;100.00;97282.78;5049985;28;24419;-74
2022/02/12 01:40:46;;;;;;;8.73;4.78;;;;;;;-1.75;100.00;97285.44;5050260;28;24430;-74
2022/02/12 01:43:13;;;;;;;27.37;4.93;;;;;;;-1.96;100.00;97283.56;5050415;28;24477;-75
2022/02/12 01:45:40;;;;;;;10.18;4.63;;;;;;;-2.13;100.00;97279.97;5050132;28;24971;-74
2022/02/12 01:48:07;;;;;;;10.05;5.32;;;;;;;-2.18;100.00;97287.53;5050544;28;24419;-74
2022/02/12 01:50:35;;;;;;;10.93;5.15;;;;;;;-2.37;100.00;97286.47;5050342;28;24426;-74
2022/02/12 01:53:02;;;;;;;9.87;4.90;;;;;;;-2.47;100.00;97284.66;5050071;28;24511;-74
2022/02/12 01:55:29;;;;;;;13.88;5.45;;;;;;;-2.53;100.00;97293.03;5050387;28;24851;-74
2022/02/12 01:57:55;;;;;;;9.68;5.22;;;;;;;-2.61;100.00;97284.47;5050087;28;24458;-74
2022/02/12 02:00:22;;;;;;;12.23;5.10;;;;;;;-2.34;100.00;97289.03;5055632;28;24462;-74
2022/02/12 02:02:49;;;;;;;10.60;5.25;;;;;;;-2.09;100.00;97281.72;5050186;28;24427;-74
2022/02/12 02:05:18;;;;;;;8.70;5.43;;;;;;;-2.20;100.00;97276.50;5050039;28;24418;-74
2022/02/12 02:07:46;;;;;;;8.95;5.90;;;;;;;-2.46;100.00;97286.34;5049819;28;24423;-74
2022/02/12 02:10:14;;;;;;;12.00;5.93;;;;;;;-2.29;100.00;97282.34;5050180;28;24458;-75
2022/02/12 02:12:41;;;;;;;11.18;5.40;;;;;;;-2.49;100.00;97279.53;5049937;28;24983;-75
2022/02/12 02:15:09;;;;;;;9.70;6.43;;;;;;;-2.74;100.00;97269.94;5050216;28;24431;-74
2022/02/12 02:17:35;;;;;;;8.43;6.00;;;;;;;-2.89;100.00;97272.25;5049551;28;24443;-73
2022/02/12 02:20:03;;;;;;;13.32;5.22;;;;;;;-2.86;100.00;97268.06;5049816;28;24434;-74
2022/02/12 02:22:34;;;;;;;10.13;5.20;;;;;;;-2.89;100.00;97272.25;5049927;28;24439;-74
2022/02/12 02:25:01;;;;;;;14.20;5.63;;;;;;;-2.96;100.00;97258.66;5050000;28;24419;-75
2022/02/12 02:27:28;;;;;;;6.57;4.80;;;;;;;-3.12;100.00;97254.19;5064162;28;24449;-74
2022/02/12 02:29:55;;;;;;;6.03;4.70;;;;;;;-2.96;100.00;97254.44;5073931;28;24517;-75
2022/02/12 02:32:22;;;;;;;10.15;6.10;;;;;;;-2.64;100.00;97253.16;5073418;28;25013;-74
2022/02/12 02:34:50;;;;;;;9.30;6.22;;;;;;;-2.53;100.00;97254.13;5073610;28;24419;-74
2022/02/12 02:37:17;;;;;;;12.37;6.53;;;;;;;-2.63;100.00;97248.13;5073462;28;24500;-75
2022/02/12 02:39:43;;;;;;;7.80;5.80;;;;;;;-2.64;100.00;97237.94;5073351;28;24959;-74
2022/02/12 02:42:12;;;;;;;7.80;5.75;;;;;;;-2.60;100.00;97244.75;5073305;28;24983;-75
2022/02/12 02:44:38;;;;;;;9.20;5.47;;;;;;;-2.79;100.00;97231.81;5073539;28;24518;-75
2022/02/12 02:47:32;;;;;;;6.88;5.05;;;;;;;-2.64;100.00;97230.31;5073105;28;24415;-74
2022/02/12 02:49:52;;;;;;;7.53;4.90;;;;;;;-2.58;100.00;97231.25;5073176;28;24495;-75
2022/02/12 02:57:57;;;;;;;7.00;5.10;;;;;;;-2.58;100.00;97226.19;5072916;28;24469;-74
2022/02/12 03:00:24;;;;;;;7.60;5.20;;;;;;;-2.58;100.00;97235.47;5073192;28;24831;-75
2022/02/12 03:02:50;;;;;;;7.70;5.65;;;;;;;-2.53;100.00;97218.63;5072915;28;24986;-74
2022/02/12 03:05:17;;;;;;;7.95;5.30;;;;;;;-2.49;100.00;97221.19;5073195;28;24506;-74
2022/02/12 03:07:43;;;;;;;9.70;5.47;;;;;;;-2.45;100.00;97219.56;5059831;28;24434;-73
2022/02/12 03:10:10;;;;;;;8.33;5.27;;;;;;;-2.42;100.00;97211.97;5072908;28;24418;-73
2022/02/12 03:12:36;;;;;;;10.10;5.70;;;;;;;-2.41;100.00;97211.16;5073181;28;24426;-74
2022/02/12 03:15:05;;;;;;;9.07;5.35;;;;;;;-2.36;100.00;97219.66;5073035;28;24433;-74
2022/02/12 03:17:32;;;;;;;9.43;5.63;;;;;;;-2.41;100.00;97211.16;5072547;28;24480;-74
2022/02/12 03:19:58;;;;;;;12.88;6.15;;;;;;;-2.32;100.00;97213.78;5072876;28;24461;-74
2022/02/12 03:22:24;;;;;;;10.73;6.38;;;;;;;-2.26;100.00;97213.88;5072159;28;24454;-74
2022/02/12 03:24:51;;;;;;;10.80;5.65;;;;;;;-2.21;100.00;97204.59;5061203;28;24549;-74
2022/02/12 03:27:17;;;;;;;9.30;5.93;;;;;;;-2.24;100.00;97198.63;5066935;28;24500;-74
2022/02/12 03:29:44;;;;;;;12.98;6.05;;;;;;;-2.39;100.00;97201.88;5064320;28;24439;-74
2022/02/12 03:32:12;;;;;;;14.73;7.97;;;;;;;-2.33;100.00;97204.47;5064181;28;24919;-74
2022/02/12 03:34:38;;;;;;;13.43;7.85;;;;;;;-2.42;100.00;97201.81;5072499;28;24950;-74
2022/02/12 03:37:05;;;;;;;24.42;8.30;;;;;;;-2.50;100.00;97200.91;5071632;28;24979;-74
2022/02/12 03:39:31;;;;;;;18.50;7.85;;;;;;;-2.65;100.00;97208.34;5072403;28;24429;-73
2022/02/12 03:41:58;;;;;;;13.02;7.43;;;;;;;-2.69;100.00;97202.38;5064111;28;24439;-74
2022/02/12 03:44:25;;;;;;;10.40;7.78;;;;;;;-2.81;100.00;97203.09;5072260;28;24526;-73
2022/02/12 03:46:51;;;;;;;16.92;6.30;;;;;;;-2.65;100.00;97188.91;5072211;28;24417;-74
2022/02/12 03:49:19;;;;;;;10.57;6.28;;;;;;;-2.68;100.00;97186.31;5072306;28;24434;-74
2022/02/12 03:51:45;;;;;;;8.57;5.90;;;;;;;-2.83;100.00;97194.59;5071968;28;24423;-74
2022/02/12 03:54:12;;;;;;;12.05;5.68;;;;;;;-2.88;100.00;97181.03;5072280;28;24426;-73
2022/02/12 03:56:39;;;;;;;7.60;5.18;;;;;;;-2.94;100.00;97171.63;5071996;28;24438;-74
2022/02/12 03:59:05;;;;;;;14.43;7.07;;;;;;;-3.20;100.00;97178.06;5063061;28;25050;-75
2022/02/12 04:01:32;;;;;;;11.45;8.30;;;;;;;-3.27;100.00;97179.66;5059947;28;24434;-75
2022/02/12 04:03:58;;;;;;;18.73;10.50;;;;;;;-2.74;100.00;97171.06;5061198;28;24488;-74
2022/02/12 04:06:26;;;;;;;19.90;12.13;;;;;;;-2.93;100.00;97164.88;5060875;28;24428;-74
2022/02/12 04:08:53;;;;;;;12.85;9.70;;;;;;;-3.27;100.00;97163.59;5059525;28;24832;-74
2022/02/12 04:11:21;;;;;;;15.40;9.77;;;;;;;-3.31;100.00;97169.47;5061070;28;24427;-74
2022/02/12 04:13:47;;;;;;;15.63;9.55;;;;;;;-3.11;100.00;97162.16;5061460;28;24435;-74
2022/02/12 04:16:14;;;;;;;15.30;10.02;;;;;;;-3.20;100.00;97151.03;5059496;28;24438;-74
2022/02/12 04:18:40;;;;;;;21.00;10.07;;;;;;;-3.22;100.00;97146.81;5057826;28;24435;-74
2022/02/12 04:21:07;;;;;;;19.38;10.77;;;;;;;-3.21;100.00;97148.50;5061765;28;24442;-74
2022/02/12 04:23:34;;;;;;;11.32;8.80;;;;;;;-3.31;100.00;97150.03;5059560;28;24508;-74
2022/02/12 04:26:03;;;;;;;24.70;10.15;;;;;;;-3.50;100.00;97137.97;5060542;28;24501;-74
2022/02/12 04:28:35;;;;;;;12.00;9.55;;;;;;;-3.33;100.00;97139.06;5058492;28;24792;-74
2022/02/12 04:31:02;;;;;;;15.07;9.05;;;;;;;-3.21;100.00;97136.66;5060218;28;24434;-74
2022/02/12 04:33:29;;;;;;;15.45;10.07;;;;;;;-3.04;100.00;97128.41;5058942;28;24438;-74
2022/02/12 04:35:55;;;;;;;20.00;12.15;;;;;;;-2.90;100.00;97116.75;5059224;28;24504;-74
2022/02/12 04:38:22;;;;;;;17.67;9.93;;;;;;;-3.05;100.00;97121.66;5059967;28;24457;-75
2022/02/12 04:40:50;;;;;;;12.57;10.18;;;;;;;-3.20;100.00;97119.78;5060811;28;24439;-75
2022/02/12 04:43:16;;;;;;;12.38;9.45;;;;;;;-3.22;100.00;97121.47;5058989;28;24439;-75
2022/02/12 04:45:42;;;;;;;10.73;8.45;;;;;;;-3.36;100.00;97122.97;5059794;28;24431;-75
2022/02/12 04:48:09;;;;;;;25.07;7.47;;;;;;;-3.35;100.00;97119.59;5060051;28;24430;-74
2022/02/12 04:50:37;;;;;;;11.40;7.25;;;;;;;-3.41;100.00;97127.97;5058911;28;24467;-75
2022/02/12 04:53:03;;;;;;;13.30;7.95;;;;;;;-3.50;100.00;97121.09;5061653;28;24442;-75
2022/02/12 04:55:30;;;;;;;14.43;8.97;;;;;;;-3.58;100.00;97119.28;5058625;28;24444;-75
2022/02/12 04:57:57;;;;;;;105.53;9.65;;;;;;;-3.78;100.00;97113.91;5057766;28;24843;-75
2022/02/12 05:00:24;;;;;;;34.28;9.32;;;;;;;-3.71;100.00;97109.00;5059502;28;24504;-74
2022/02/12 05:02:50;;;;;;;10.43;7.35;;;;;;;-3.56;100.00;97110.00;5058670;28;24839;-74
2022/02/12 05:05:17;;;;;;;21.23;7.90;;;;;;;-3.39;100.00;97108.56;5060361;28;24430;-74
2022/02/12 05:07:43;;;;;;;24.75;7.50;;;;;;;-3.28;100.00;97104.47;5059323;28;24423;-74
2022/02/12 05:10:10;;;;;;;14.75;6.72;;;;;;;-3.21;100.00;97101.19;5059053;28;24438;-75
2022/02/12 05:12:37;;;;;;;19.70;7.20;;;;;;;-3.16;100.00;97102.09;5060557;28;24493;-75
2022/02/12 05:15:07;;;;;;;12.00;7.68;;;;;;;-3.15;100.00;97100.44;5059391;28;24430;-75
2022/02/12 05:17:33;;;;;;;17.60;7.53;;;;;;;-3.13;100.00;97100.44;5058507;28;24462;-75
2022/02/12 05:19:59;;;;;;;11.90;7.20;;;;;;;-3.07;100.00;97096.31;5057839;28;24824;-75
2022/02/12 05:22:26;;;;;;;19.27;8.50;;;;;;;-3.04;100.00;97101.41;5056697;28;24995;-75
2022/02/12 05:24:52;;;;;;;34.25;7.47;;;;;;;-3.16;100.00;97093.66;5058006;28;24804;-75
2022/02/12 05:27:19;;;;;;;22.70;7.83;;;;;;;-3.09;100.00;97090.34;5059401;28;24506;-75
2022/02/12 05:29:45;;;;;;;15.13;7.38;;;;;;;-2.96;100.00;97091.38;5057692;28;24476;-75
2022/02/12 05:32:13;;;;;;;13.05;7.75;;;;;;;-2.92;100.00;97086.34;5096511;23;24435;-77
2022/02/12 05:34:40;;;;;;;16.50;8.20;;;;;;;-3.06;100.00;97084.47;5082618;28;24475;-77
2022/02/12 05:37:06;;;;;;;19.08;9.52;;;;;;;-3.07;100.00;97087.84;5071608;28;24465;-77
2022/02/12 05:39:33;;;;;;;26.40;8.80;;;;;;;-3.05;100.00;97081.09;5071524;28;24961;-77
2022/02/12 05:41:59;;;;;;;16.50;7.90;;;;;;;-3.11;100.00;97079.38;5071307;28;24426;-76
2022/02/12 05:44:26;;;;;;;12.32;7.75;;;;;;;-3.09;100.00;97082.75;5071320;28;24970;-77
2022/02/12 05:46:52;;;;;;;9.90;7.32;;;;;;;-3.29;100.00;97072.41;5070599;28;24476;-77
2022/02/12 05:49:20;;;;;;;9.63;6.60;;;;;;;-3.14;100.00;97068.34;5071161;28;24431;-77
2022/02/12 05:51:47;;;;;;;17.63;6.40;;;;;;;-3.35;100.00;97062.16;5071097;28;24472;-77
2022/02/12 05:54:13;;;;;;;9.80;6.43;;;;;;;-3.14;100.00;97058.22;5070950;28;24430;-76
2022/02/12 05:56:40;;;;;;;9.30;7.10;;;;;;;-3.18;100.00;97059.84;5070367;28;24423;-76
2022/02/12 05:59:08;;;;;;;13.70;7.05;;;;;;;-3.60;100.00;97063.53;5070276;28;24443;-77
2022/02/12 06:01:35;;;;;;;18.13;7.07;;;;;;;-3.92;100.00;97058.06;5074354;28;24437;-77
2022/02/12 06:04:01;;;;;;;10.82;6.80;;;;;;;-4.16;100.00;97058.53;5075477;28;24429;-77
2022/02/12 06:06:29;;;;;;;7.97;6.47;;;;;;;-4.28;100.00;97061.72;5074489;28;24847;-76
2022/02/12 06:08:55;;;;;;;6.93;5.90;;;;;;;-4.38;100.00;97070.81;5074544;28;25079;-77
2022/02/12 06:11:22;;;;;;;8.15;6.18;;;;;;;-4.50;100.00;97062.19;5074552;28;24494;-77
2022/02/12 06:13:51;;;;;;;11.43;7.03;;;;;;;-4.45;100.00;97058.94;5074456;28;24483;-77
2022/02/12 06:16:18;;;;;;;14.90;7.15;;;;;;;-4.55;100.00;97063.81;5074486;28;24423;-77
2022/02/12 06:18:45;;;;;;;8.48;7.45;;;;;;;-4.34;100.00;97066.66;5074002;28;24459;-77
2022/02/12 06:21:11;;;;;;;10.53;7.40;;;;;;;-4.26;100.00;97060.09;5074304;28;24487;-77
2022/02/12 06:23:39;;;;;;;9.68;7.50;;;;;;;-4.07;100.00;97066.28;5074225;28;24433;-77
2022/02/12 06:26:07;;;;;;;12.43;7.47;;;;;;;-3.96;100.00;97061.38;5073791;28;24419;-77
2022/02/12 06:28:34;;;;;;;9.20;7.18;;;;;;;-3.91;100.00;97060.59;5073991;28;24519;-77
2022/02/12 06:31:02;;;;;;;12.55;7.72;;;;;;;-3.84;100.00;97055.63;5074252;28;24415;-77
2022/02/12 06:33:28;;;;;;;17.80;6.75;;;;;;;-3.83;100.00;97059.84;5074622;28;24530;-77
2022/02/12 06:35:55;;;;;;;20.38;6.00;;;;;;;-3.74;100.00;97053.25;5075371;28;24804;-77
2022/02/12 06:38:22;;;;;;;7.35;5.32;;;;;;;-3.84;100.00;97061.53;5075531;28;24450;-77
2022/02/12 06:40:49;;;;;;;12.93;6.57;;;;;;;-3.92;100.00;97056.38;5075593;28;24423;-77
2022/02/12 06:43:16;;;;;;;12.20;6.88;;;;;;;-4.03;100.00;97057.91;5075316;28;24430;-77
2022/02/12 06:45:42;;;;;;;9.77;6.82;;;;;;;-4.00;100.00;97063.00;5080089;28;24772;-77
2022/02/12 06:48:09;;;;;;;15.13;7.00;;;;;;;-4.09;100.00;97062.00;5075305;28;24429;-77
2022/02/12 06:50:35;;;;;;;7.55;6.53;;;;;;;-4.04;100.00;97058.72;5073119;28;24987;-76
2022/02/12 06:53:02;;;;;;;66.82;7.80;;;;;;;-4.32;100.00;97067.56;5057676;28;24438;-77
2022/02/12 06:55:29;;;;;;;32.33;9.40;;;;;;;-4.43;100.00;97064.84;5070573;28;24488;-77
2022/02/12 06:57:57;;;;;;;39.22;10.20;;;;;;;-4.40;100.00;97059.00;5064084;28;24525;-76
2022/02/12 07:00:23;;;;;;;17.85;10.60;;;;;;;-4.30;100.00;97054.94;5063890;28;24442;-74
2022/02/12 07:02:51;;;;;;;13.68;9.38;;;;;;;-4.15;100.00;97056.03;5066916;28;24438;-74
2022/02/12 07:05:17;;;;;;;21.23;8.63;;;;;;;-3.97;100.00;97052.06;5057260;28;24497;-77
2022/02/12 07:07:45;;;;;;;15.50;8.48;;;;;;;-3.86;100.00;97055.59;5052296;28;24439;-77
2022/02/12 07:10:12;;;;;;;23.20;7.13;;;;;;;-3.92;100.00;97053.00;5054350;28;24451;-77
2022/02/12 07:12:38;;;;;;;23.20;6.90;;;;;;;-3.88;100.00;97058.94;5062237;28;25033;-76
2022/02/12 07:15:07;;;;;;;35.53;7.35;;;;;;;-4.04;100.00;97066.31;5075578;28;24429;-77
2022/02/12 07:17:37;;;;;;;13.27;6.47;;;;;;;-3.98;100.00;97071.44;5066216;28;24843;-79
2022/02/12 07:20:04;;;;;;;9.33;7.23;;;;;;;-3.84;100.00;97068.28;5054575;28;25138;-77
2022/02/12 07:22:31;;;;;;;34.38;7.00;;;;;;;-3.83;100.00;97070.81;5054709;28;24438;-77
2022/02/12 07:24:57;;;;;;;55.75;7.47;;;;;;;-3.92;100.00;97065.66;5074794;28;25046;-78
2022/02/12 07:27:24;;;;;;;25.45;6.60;;;;;;;-3.91;100.00;97065.66;5076565;28;24418;-77
2022/02/12 07:29:50;;;;;;;10.98;5.35;;;;;;;-3.72;100.00;97070.97;5073885;28;24442;-77
2022/02/12 07:32:18;;;;;;;15.68;6.32;;;;;;;-3.70;100.00;97069.34;5056457;28;24443;-77
2022/02/12 07:34:45;;;;;;;10.97;6.67;;;;;;;-3.55;100.00;97064.47;5068937;28;24504;-77
2022/02/12 07:37:11;;;;;;;13.13;6.05;;;;;;;-3.55;100.00;97067.00;5058401;28;24438;-79
2022/02/12 07:39:38;;;;;;;11.52;5.78;;;;;;;-3.46;100.00;97056.97;5064564;28;24459;-79
2022/02/12 07:42:05;;;;;;;33.85;6.63;;;;;;;-3.28;100.00;97053.81;5063106;28;24430;-79
2022/02/12 07:44:31;;;;;;;23.02;9.30;;;;;;;-2.92;100.00;97048.31;5065016;28;24477;-79
2022/02/12 07:46:58;;;;;;;10.90;9.10;;;;;;;-2.70;100.00;97062.06;5071342;28;24998;-79
2022/02/12 07:49:26;;;;;;;10.53;8.83;;;;;;;-2.81;100.00;97057.72;5080130;28;24455;-76
2022/02/12 07:51:52;;;;;;;14.48;8.85;;;;;;;-2.72;100.00;97057.78;5082874;28;24430;-79
2022/02/12 07:54:19;;;;;;;12.32;8.38;;;;;;;-2.51;100.00;97068.16;5083161;28;24423;-79
2022/02/12 07:56:45;;;;;;;9.47;8.53;;;;;;;-2.24;100.00;97067.53;5083283;28;24441;-78
2022/02/12 07:59:12;;;;;;;16.52;10.20;;;;;;;-2.33;100.00;97059.84;5082728;28;24985;-79
2022/02/12 08:01:39;;;;;;;13.95;11.10;;;;;;;-2.01;100.00;97064.31;5084336;28;24442;-79
2022/02/12 08:04:06;;;;;;;13.15;11.55;;;;;;;-1.78;100.00;97061.91;5075343;28;24501;-78
2022/02/12 08:09:17;;;;;;;8.85;7.78;;;;;;;-1.14;100.00;97057.16;5080478;28;24502;-79
2022/02/12 08:11:52;;;;;;;8.40;7.22;;;;;;;-0.97;100.00;97062.28;5070803;28;24443;-79
2022/02/12 08:14:18;;;;;;;7.45;6.18;;;;;;;-0.78;100.00;97058.97;5061969;28;24457;-78
2022/02/12 08:16:45;;;;;;;8.93;6.10;;;;;;;-0.60;100.00;97068.31;5072523;28;24446;-79
2022/02/12 08:19:11;;;;;;;7.03;5.63;;;;;;;-0.38;100.00;97064.09;5071692;28;24872;-79
2022/02/12 08:21:39;;;;;;;9.90;7.25;;;;;;;-0.20;100.00;97060.72;5070791;28;24431;-79
2022/02/12 08:24:06;;;;;;;10.30;8.27;;;;;;;-0.02;100.00;97068.34;5074534;28;24443;-79
2022/02/12 08:26:32;;;;;;;10.77;9.13;;;;;;;0.08;100.00;97073.47;5058574;28;24423;-79
2022/02/12 08:28:58;;;;;;;13.27;10.07;;;;;;;-0.10;100.00;97072.63;5063777;28;24973;-79
2022/02/12 08:31:25;;;;;;;13.38;9.90;;;;;;;0.16;100.00;97072.59;5058260;28;24797;-79
2022/02/12 08:33:53;;;;;;;11.18;9.45;;;;;;;0.39;100.00;97064.91;5068702;28;24447;-79
2022/02/12 08:36:20;;;;;;;12.48;8.68;;;;;;;0.55;100.00;97068.25;5056935;28;24466;-79
2022/02/12 08:38:47;;;;;;;12.77;8.95;;;;;;;0.66;100.00;97058.88;5056619;28;24490;-79
2022/02/12 08:41:14;;;;;;;10.65;7.57;;;;;;;0.73;100.00;97059.72;5064592;28;24441;-80
2022/02/12 08:43:40;;;;;;;8.70;7.10;;;;;;;0.83;100.00;97058.00;5076261;28;24438;-80
2022/02/12 08:46:07;;;;;;;11.18;7.40;;;;;;;0.83;100.00;97050.34;5061434;28;24431;-73
2022/02/12 08:48:33;;;;;;;8.35;6.18;;;;;;;0.96;100.00;97045.19;5059105;28;24450;-79
2022/02/12 08:51:00;;;;;;;21.48;14.43;;;;;;;0.59;100.00;97049.56;5055910;28;24465;-78
2022/02/12 08:53:26;;;;;;;10.80;7.50;;;;;;;0.20;100.00;97041.16;5062275;28;24427;-79
2022/02/12 08:55:54;;;;;;;13.87;6.93;;;;;;;0.16;100.00;97044.56;5064799;28;24480;-78
2022/02/12 08:58:22;;;;;;;10.48;6.90;;;;;;;0.01;100.00;97047.16;5064738;28;25031;-78
2022/02/12 09:00:49;;;;;;;12.13;6.53;;;;;;;-0.25;100.00;97047.16;5065379;28;24836;-78
2022/02/12 09:03:16;;;;;;;9.48;6.22;;;;;;;0.11;100.00;97041.19;5078747;28;24437;-78
2022/02/12 09:05:42;;;;;;;13.70;8.15;;;;;;;-0.05;100.00;97042.88;5103143;28;24442;-78
2022/02/12 09:08:09;;;;;;;11.50;8.00;;;;;;;0.60;100.00;97037.69;5094113;28;24465;-78
2022/02/12 09:10:35;;;;;;;14.52;7.75;;;;;;;0.95;100.00;97033.25;5081294;28;24437;-78
2022/02/12 09:13:03;;;;;;;11.73;6.50;;;;;;;0.89;100.00;97029.88;5074080;28;24472;-75
2022/02/12 09:15:30;;;;;;;11.90;6.25;;;;;;;1.06;100.00;97023.00;5076084;28;24446;-79
2022/02/12 09:17:56;;;;;;;10.60;6.45;;;;;;;1.56;100.00;97023.53;5071566;28;24450;-79
2022/02/12 09:20:22;;;;;;;13.77;6.10;;;;;;;2.00;100.00;97025.72;5058611;28;24837;-79
2022/02/12 09:22:49;;;;;;;10.73;6.25;;;;;;;1.97;100.00;97018.09;5057692;28;24848;-79
2022/02/12 09:25:15;;;;;;;8.32;6.28;;;;;;;2.36;100.00;97021.13;5073157;28;24450;-79
2022/02/12 09:27:42;;;;;;;11.43;7.57;;;;;;;2.64;100.00;97027.63;5088117;28;24407;-79
2022/02/12 09:30:12;;;;;;;12.52;8.77;;;;;;;2.84;99.37;97018.88;5077098;28;24438;-80
2022/02/12 09:32:38;;;;;;;11.02;7.88;;;;;;;2.38;97.44;97020.25;5076520;28;24436;-80
2022/02/12 09:35:06;;;;;;;9.55;7.03;;;;;;;2.30;96.54;97011.81;5081002;28;24427;-80
2022/02/12 09:37:33;;;;;;;11.88;7.53;;;;;;;2.11;99.32;97013.72;5069803;28;24435;-81
2022/02/12 09:39:59;;;;;;;14.67;7.10;;;;;;;2.50;100.00;97019.28;5078655;28;24547;-80
2022/02/12 09:42:26;;;;;;;19.15;9.85;;;;;;;2.16;98.77;97014.50;5075251;28;24446;-80
2022/02/12 09:44:53;;;;;;;11.30;6.13;;;;;;;2.15;100.00;97012.81;5078835;28;24442;-80
2022/02/12 09:47:40;;;;;;;11.23;6.10;;;;;;;3.01;95.75;97011.00;5072393;28;24439;-81
2022/02/12 09:50:08;;;;;;;11.35;5.95;;;;;;;3.29;97.79;97012.28;5094640;28;24428;-80
2022/02/12 09:52:36;;;;;;;12.32;6.93;;;;;;;3.30;91.01;97002.88;5086178;28;24808;-81
2022/02/12 09:55:03;;;;;;;9.85;6.28;;;;;;;3.13;94.65;97008.25;5079527;28;24450;-80
2022/02/12 09:57:30;;;;;;;8.05;5.40;;;;;;;3.04;93.59;97009.25;5064514;28;24443;-79
2022/02/12 09:59:58;;;;;;;40.17;22.27;;;;;;;2.67;95.16;97001.19;5069763;28;24461;-80
2022/02/12 10:02:24;;;;;;;15.50;7.00;;;;;;;2.58;94.89;96997.00;5076163;28;24504;-72
2022/02/12 10:05:21;;;;;;;12.77;6.17;;;;;;;3.24;95.08;96997.88;5074523;28;24429;-80
2022/02/12 10:07:49;;;;;;;11.35;5.90;;;;;;;3.30;92.05;96993.53;5061214;28;24425;-81
2022/02/12 10:10:17;;;;;;;13.27;6.00;;;;;;;3.64;92.57;96988.72;5060908;28;24928;-81
2022/02/12 10:12:44;;;;;;;12.83;7.20;;;;;;;3.41;93.25;96980.53;5061520;28;25081;-80
2022/02/12 10:15:24;;;;;;;9.95;5.60;;;;;;;4.10;90.18;96974.28;5067580;28;24427;-80
2022/02/12 10:17:52;;;;;;;14.95;7.70;;;;;;;4.30;87.09;96973.91;5061085;28;24506;-81
2022/02/12 10:20:26;;;;;;;14.25;5.70;;;;;;;4.50;88.34;96976.94;5066205;28;24505;-80
2022/02/12 10:22:54;;;;;;;11.73;4.95;;;;;;;4.84;88.67;96971.97;5059465;28;24427;-81
2022/02/12 10:25:21;;;;;;;11.38;5.57;;;;;;;4.54;83.71;96970.03;5059665;28;24439;-81
2022/02/12 10:27:49;;;;;;;12.25;5.53;;;;;;;3.92;85.97;96965.19;5061891;28;24980;-80
2022/02/12 10:30:16;;;;;;;10.55;6.00;;;;;;;4.35;85.83;96962.69;5076543;28;24519;-81
2022/02/12 10:32:42;;;;;;;11.70;4.43;;;;;;;5.04;80.74;96961.28;5069281;28;24438;-81
2022/02/12 10:35:10;;;;;;;8.68;4.10;;;;;;;5.06;78.71;96959.50;5052401;28;24426;-80
2022/02/12 10:37:43;;;;;;;11.55;4.57;;;;;;;5.19;75.37;96959.22;5052212;28;24899;-80
2022/02/12 10:40:11;;;;;;;8.90;4.07;;;;;;;5.33;79.32;96957.19;5051430;28;24992;-79
2022/02/12 10:42:43;;;;;;;8.10;4.10;;;;;;;5.15;75.28;96950.75;5066293;28;24500;-81
2022/02/12 10:45:13;;;;;;;7.10;4.03;;;;;;;5.06;75.02;96950.97;5070910;28;24438;-80
2022/02/12 10:47:42;;;;;;;7.93;3.95;;;;;;;5.03;75.27;96951.03;5075017;28;24457;-80
2022/02/12 10:50:10;;;;;;;5.80;3.58;;;;;;;5.08;75.89;96950.06;5073269;28;24431;-80
2022/02/12 10:52:43;;;;;;;8.30;3.72;;;;;;;5.05;72.96;96947.56;5075537;28;24831;-80
2022/02/12 10:55:29;;;;;;;10.05;4.57;;;;;;;4.78;74.69;96938.75;5075532;28;24808;-73
2022/02/12 10:57:56;;;;;;;9.95;4.22;;;;;;;4.71;76.88;96936.31;5056371;28;24446;-79
2022/02/12 11:00:27;;;;;;;8.15;4.18;;;;;;;4.79;78.98;96931.88;5056222;28;24458;-78
2022/02/12 11:02:55;;;;;;;9.52;4.00;;;;;;;4.83;72.24;96920.69;5055600;28;24447;-78
2022/02/12 11:05:23;;;;;;;9.27;4.30;;;;;;;5.09;74.40;96926.06;5039442;28;24427;-77
2022/02/12 11:07:52;;;;;;;5.78;3.58;;;;;;;5.02;71.37;96914.25;5055065;28;24434;-78
2022/02/12 11:10:19;;;;;;;7.93;3.70;;;;;;;5.09;74.66;96905.53;5054063;28;24436;-77
2022/02/12 11:12:46;;;;;;;9.73;3.97;;;;;;;5.02;73.19;96903.13;5054691;28;24827;-77
2022/02/12 11:15:13;;;;;;;6.68;3.50;;;;;;;5.06;72.68;96900.47;5054564;28;24423;-77
2022/02/12 11:17:41;;;;;;;7.15;3.63;;;;;;;5.08;68.46;96895.31;5053570;28;24960;-77
2022/02/12 11:20:11;;;;;;;8.15;3.78;;;;;;;5.07;71.67;96888.47;5055816;28;24473;-77
2022/02/12 11:22:39;;;;;;;8.48;3.60;;;;;;;5.21;68.17;96891.56;5075018;28;24433;-77
2022/02/12 11:25:34;;;;;;;6.45;3.63;;;;;;;5.03;69.65;96884.28;5074239;28;24426;-76
2022/02/12 11:28:05;;;;;;;5.18;3.65;;;;;;;4.94;70.25;96866.53;5053667;28;24967;-77
2022/02/12 11:30:32;;;;;;;6.43;3.78;;;;;;;5.00;68.91;96867.22;5093364;28;24430;-77